createdAt,value
2023-03-11T00:00:51.415Z,1.00
2023-03-11T00:03:25.080Z,1.00
2023-03-11T00:05:54.572Z,1.00
2023-03-11T00:08:25.500Z,1.00
2023-03-11T00:10:56.475Z,1.00
2023-03-11T00:13:25.340Z,1.00
2023-03-11T00:15:57.263Z,1.00
2023-03-11T00:18:31.786Z,1.00
2023-03-11T00:21:01.675Z,1.00
2023-03-11T00:23:32.947Z,1.00
2023-03-11T00:26:03.371Z,1.00
2023-03-11T00:28:34.233Z,1.00
2023-03-11T00:31:03.801Z,1.00
2023-03-11T00:33:34.361Z,1.00
2023-03-11T00:36:04.059Z,1.00
2023-03-11T00:38:33.950Z,1.00
2023-03-11T00:41:02.412Z,1.00
2023-03-11T00:43:40.887Z,1.00
2023-03-11T00:46:11.225Z,1.00
2023-03-11T00:48:41.203Z,1.00
2023-03-11T00:51:12.945Z,1.00
2023-03-11T00:53:43.923Z,1.00
2023-03-11T00:56:16.814Z,1.00
2023-03-11T00:58:48.695Z,1.00
2023-03-11T01:01:22.643Z,1.00
2023-03-11T01:03:53.600Z,1.00
2023-03-11T01:06:23.391Z,1.00
2023-03-11T01:08:55.501Z,3.10
2023-03-11T01:11:24.213Z,12.20
2023-03-11T01:13:53.344Z,13.40
2023-03-11T01:16:23.830Z,1.00
2023-03-11T01:18:54.535Z,1.00
2023-03-11T01:21:23.817Z,1.00
2023-03-11T01:23:53.606Z,1.00
2023-03-11T01:26:26.263Z,1.00
2023-03-11T01:28:59.847Z,1.00
2023-03-11T01:31:32.691Z,1.00
2023-03-11T01:34:02.781Z,1.00
2023-03-11T01:36:31.199Z,1.00
2023-03-11T01:39:00.751Z,1.00
2023-03-11T01:41:30.062Z,1.00
2023-03-11T01:44:00.890Z,1.00
2023-03-11T01:47:11.051Z,1.00
2023-03-11T01:49:43.716Z,1.00
2023-03-11T01:52:12.600Z,1.00
2023-03-11T01:54:50.660Z,1.00
2023-03-11T01:57:22.903Z,1.00
2023-03-11T01:59:54.737Z,1.00
2023-03-11T02:02:29.785Z,1.00
2023-03-11T02:05:04.326Z,1.00
2023-03-11T02:07:33.418Z,1.00
2023-03-11T02:10:03.719Z,1.00
2023-03-11T02:12:37.250Z,1.00
2023-03-11T02:15:08.818Z,1.00
2023-03-11T02:17:40.141Z,19.20
2023-03-11T02:20:34.530Z,39.80
2023-03-11T02:23:04.047Z,73.70
2023-03-11T02:25:39.558Z,97.60
2023-03-11T02:28:13.935Z,99.90
2023-03-11T02:30:46.628Z,99.90
2023-03-11T02:33:17.213Z,99.90
2023-03-11T02:35:48.579Z,99.90
2023-03-11T02:38:17.186Z,99.90
2023-03-11T02:40:52.879Z,99.90
2023-03-11T02:43:33.722Z,99.90
2023-03-11T02:46:05.691Z,99.90
2023-03-11T02:48:36.708Z,99.90
2023-03-11T02:51:08.439Z,99.90
2023-03-11T02:53:41.965Z,99.90
2023-03-11T02:56:11.798Z,99.90
2023-03-11T02:58:42.861Z,99.90
2023-03-11T03:01:11.819Z,99.90
2023-03-11T03:03:42.673Z,99.90
2023-03-11T03:06:11.342Z,99.90
2023-03-11T03:08:40.767Z,99.90
2023-03-11T03:11:09.450Z,99.90
2023-03-11T03:13:39.376Z,99.90
2023-03-11T03:16:09.972Z,99.90
2023-03-11T03:18:39.728Z,99.90
2023-03-11T03:21:09.601Z,99.90
2023-03-11T03:23:38.589Z,99.90
2023-03-11T03:26:08.106Z,99.90
2023-03-11T03:28:44.766Z,99.90
2023-03-11T03:31:18.357Z,99.90
2023-03-11T03:33:47.102Z,99.90
2023-03-11T03:36:16.550Z,99.90
2023-03-11T03:38:54.325Z,99.90
2023-03-11T03:41:25.796Z,99.90
2023-03-11T03:43:59.102Z,99.90
2023-03-11T03:46:29.754Z,99.90
2023-03-11T03:49:00.580Z,99.90
2023-03-11T03:51:34.846Z,99.90
2023-03-11T03:54:12.176Z,99.90
2023-03-11T03:56:47.677Z,99.90
2023-03-11T03:59:16.443Z,99.90
2023-03-11T04:01:52.424Z,99.90
2023-03-11T04:04:24.311Z,99.90
2023-03-11T04:06:52.953Z,99.90
2023-03-11T04:09:22.120Z,99.90
2023-03-11T04:11:50.625Z,99.90
2023-03-11T04:14:21.754Z,99.90
2023-03-11T04:16:59.342Z,99.90
2023-03-11T04:19:28.564Z,99.90
2023-03-11T04:21:58.554Z,99.90
2023-03-11T04:24:28.432Z,99.90
2023-03-11T04:26:58.554Z,99.90
2023-03-11T04:29:28.099Z,99.90
2023-03-11T04:32:01.147Z,99.90
2023-03-11T04:34:29.989Z,99.90
2023-03-11T04:36:59.882Z,99.90
2023-03-11T04:39:33.457Z,99.90
2023-03-11T04:42:04.075Z,99.90
2023-03-11T04:44:35.953Z,99.90
2023-03-11T04:47:07.680Z,99.90
2023-03-11T04:49:37.157Z,99.90
2023-03-11T04:52:07.765Z,99.90
2023-03-11T04:54:38.029Z,99.90
2023-03-11T04:57:07.868Z,99.90
2023-03-11T04:59:37.439Z,99.90
2023-03-11T05:02:12.475Z,99.90
2023-03-11T05:04:44.744Z,99.90
2023-03-11T05:07:13.089Z,99.90
2023-03-11T05:09:49.726Z,99.90
2023-03-11T05:12:19.141Z,99.90
2023-03-11T05:14:54.582Z,99.90
2023-03-11T05:17:28.661Z,99.90
2023-03-11T05:19:57.638Z,99.90
2023-03-11T05:22:31.746Z,99.90
2023-03-11T05:25:00.628Z,99.90
2023-03-11T05:27:30.607Z,99.90
2023-03-11T05:29:59.908Z,99.90
2023-03-11T05:32:32.353Z,99.90
2023-03-11T05:35:01.195Z,99.90
2023-03-11T05:37:32.501Z,99.90
2023-03-11T05:40:06.005Z,99.90
2023-03-11T05:42:35.879Z,99.90
2023-03-11T05:45:05.284Z,99.90
2023-03-11T05:47:36.896Z,99.90
2023-03-11T05:50:07.316Z,99.90
2023-03-11T05:52:36.291Z,99.90
2023-03-11T05:55:05.490Z,99.90
2023-03-11T05:57:35.081Z,99.90
2023-03-11T06:00:04.563Z,99.90
2023-03-11T06:02:43.591Z,99.90
2023-03-11T06:05:16.377Z,99.90
2023-03-11T06:07:47.431Z,99.90
2023-03-11T06:10:16.513Z,99.90
2023-03-11T06:12:45.389Z,99.90
2023-03-11T06:15:35.595Z,99.90
2023-03-11T06:18:06.748Z,99.90
2023-03-11T06:20:39.259Z,99.90
2023-03-11T06:23:08.300Z,99.90
2023-03-11T06:25:37.773Z,99.90
2023-03-11T06:28:08.205Z,99.90
2023-03-11T06:30:38.159Z,99.90
2023-03-11T06:33:14.709Z,99.90
2023-03-11T06:35:45.981Z,99.90
2023-03-11T06:38:14.537Z,99.90
2023-03-11T06:40:45.101Z,99.90
2023-03-11T06:43:14.495Z,99.90
2023-03-11T06:45:44.846Z,99.90
2023-03-11T06:48:15.767Z,99.90
2023-03-11T06:50:44.473Z,99.90
2023-03-11T06:53:13.908Z,99.90
2023-03-11T06:55:43.496Z,99.90
2023-03-11T06:58:14.559Z,99.90
2023-03-11T07:00:44.203Z,99.90
2023-03-11T07:03:14.833Z,99.90
2023-03-11T07:05:43.502Z,99.90
2023-03-11T07:08:13.401Z,99.90
2023-03-11T07:10:45.207Z,99.90
2023-03-11T07:13:15.806Z,99.90
2023-03-11T07:15:44.234Z,99.90
2023-03-11T07:18:14.317Z,99.90
2023-03-11T07:20:42.704Z,99.90
2023-03-11T07:23:12.746Z,99.90
2023-03-11T07:25:48.301Z,99.90
2023-03-11T07:28:20.217Z,99.90
2023-03-11T07:30:49.599Z,99.90
2023-03-11T07:33:22.043Z,99.90
2023-03-11T07:35:51.531Z,99.90
2023-03-11T07:38:21.090Z,99.90
2023-03-11T07:40:58.717Z,99.90
2023-03-11T07:43:27.371Z,99.90
2023-03-11T07:46:04.803Z,99.90
2023-03-11T07:48:35.960Z,99.90
2023-03-11T07:51:06.115Z,99.90
2023-03-11T07:53:36.263Z,99.90
2023-03-11T07:56:08.614Z,99.90
2023-03-11T07:58:38.236Z,99.90
2023-03-11T08:01:08.258Z,99.90
2023-03-11T08:03:39.136Z,99.90
2023-03-11T08:06:15.427Z,99.90
2023-03-11T08:08:45.844Z,99.90
2023-03-11T08:11:15.252Z,99.90
2023-03-11T08:13:44.775Z,99.90
2023-03-11T08:16:15.372Z,99.90
2023-03-11T08:18:45.480Z,99.90
2023-03-11T08:21:16.254Z,99.90
2023-03-11T08:23:47.229Z,59.60
2023-03-11T08:26:17.772Z,61.00
2023-03-11T08:28:46.673Z,34.80
2023-03-11T08:31:16.513Z,1.00
2023-03-11T08:33:50.034Z,1.00
2023-03-11T08:36:20.593Z,1.00
2023-03-11T08:38:51.426Z,1.00
2023-03-11T08:41:20.496Z,1.00
2023-03-11T08:43:49.254Z,1.00
2023-03-11T08:46:24.383Z,99.90
2023-03-11T08:48:55.123Z,1.00
2023-03-11T08:51:24.907Z,1.00
2023-03-11T08:53:57.176Z,99.90
2023-03-11T08:56:25.836Z,99.90
2023-03-11T08:58:54.252Z,99.90
2023-03-11T09:01:23.736Z,1.00
2023-03-11T09:03:53.730Z,1.00
2023-03-11T09:06:22.800Z,1.00
2023-03-11T09:08:52.968Z,1.00
2023-03-11T09:11:22.932Z,1.00
2023-03-11T09:13:52.144Z,1.00
2023-03-11T09:16:25.547Z,99.90
2023-03-11T09:18:55.540Z,47.70
2023-03-11T09:21:24.365Z,99.90
2023-03-11T09:23:52.899Z,99.90
2023-03-11T09:26:23.775Z,99.90
2023-03-11T09:28:52.382Z,12.30
2023-03-11T09:31:21.128Z,1.00
2023-03-11T09:33:52.425Z,99.90
2023-03-11T09:36:28.580Z,99.90
2023-03-11T09:38:57.378Z,99.90
2023-03-11T09:41:42.378Z,99.90
2023-03-11T09:44:25.192Z,99.90
2023-03-11T09:47:07.130Z,74.30
2023-03-11T09:49:47.068Z,1.00
2023-03-11T09:52:20.753Z,1.00
2023-03-11T09:54:51.612Z,1.00
2023-03-11T09:57:25.367Z,1.00
2023-03-11T09:59:56.026Z,1.00
2023-03-11T10:02:27.700Z,1.00
2023-03-11T10:05:02.648Z,35.90
2023-03-11T10:07:39.356Z,99.90
2023-03-11T10:10:12.569Z,65.40
2023-03-11T10:12:51.923Z,99.90
2023-03-11T10:15:28.990Z,99.90
2023-03-11T10:18:16.991Z,25.90
2023-03-11T10:20:57.831Z,1.00
2023-03-11T10:23:41.292Z,1.00
2023-03-11T10:26:14.595Z,1.00
2023-03-11T10:28:48.328Z,1.00
2023-03-11T10:31:27.760Z,1.00
2023-03-11T10:34:01.274Z,1.00
2023-03-11T10:36:40.795Z,99.90
2023-03-11T10:39:13.082Z,99.90
2023-03-11T10:41:45.964Z,99.90
2023-03-11T10:44:18.941Z,99.90
2023-03-11T10:46:47.699Z,99.90
2023-03-11T10:49:20.238Z,99.90
2023-03-11T10:51:50.944Z,99.90
2023-03-11T10:54:28.574Z,99.90
2023-03-11T10:57:01.303Z,99.90
2023-03-11T10:59:32.741Z,99.90
2023-03-11T11:02:05.441Z,99.90
2023-03-11T11:04:38.287Z,99.90
2023-03-11T11:07:30.501Z,99.90
2023-03-11T11:10:18.009Z,99.90
2023-03-11T11:12:57.624Z,99.90
2023-03-11T11:15:30.600Z,99.90
2023-03-11T11:18:01.974Z,99.90
2023-03-11T11:20:35.107Z,99.90
2023-03-11T11:23:05.989Z,99.90
2023-03-11T11:25:38.177Z,99.90
2023-03-11T11:28:18.853Z,99.90
2023-03-11T11:30:57.731Z,99.90
2023-03-11T11:33:29.564Z,99.90
2023-03-11T11:36:00.409Z,99.90
2023-03-11T11:38:31.926Z,99.90
2023-03-11T11:41:05.830Z,99.90
2023-03-11T11:43:49.952Z,99.90
2023-03-11T11:46:27.253Z,99.90
2023-03-11T11:49:12.945Z,99.90
2023-03-11T11:51:47.046Z,99.90
2023-03-11T11:54:20.429Z,99.90
2023-03-11T11:56:50.570Z,99.90
2023-03-11T11:59:21.957Z,99.90
2023-03-11T12:02:07.565Z,99.90
2023-03-11T12:04:51.378Z,99.90
2023-03-11T12:07:41.531Z,99.90
2023-03-11T12:10:24.240Z,99.90
2023-03-11T12:13:15.901Z,99.90
2023-03-11T12:15:50.985Z,99.90
2023-03-11T12:18:46.855Z,99.90
2023-03-11T12:21:30.943Z,99.90
2023-03-11T12:24:13.213Z,99.90
2023-03-11T12:26:47.056Z,99.90
2023-03-11T12:29:28.031Z,99.90
2023-03-11T12:31:59.884Z,99.90
2023-03-11T12:34:29.371Z,99.90
2023-03-11T12:37:03.492Z,99.90
2023-03-11T12:39:35.830Z,99.90
2023-03-11T12:42:20.411Z,99.90
2023-03-11T12:44:53.837Z,99.90
2023-03-11T12:47:24.864Z,99.90
2023-03-11T12:49:55.284Z,99.90
2023-03-11T12:52:26.528Z,99.90
2023-03-11T12:55:42.123Z,99.90
2023-03-11T13:02:12.398Z,99.90
2023-03-11T13:04:56.353Z,99.90
2023-03-11T13:07:54.665Z,99.90
2023-03-11T13:10:41.806Z,99.90
2023-03-11T13:13:40.347Z,99.90
2023-03-11T13:16:50.125Z,99.90
2023-03-11T13:20:00.191Z,99.90
2023-03-11T13:23:16.091Z,99.90
2023-03-11T13:26:27.838Z,99.90
2023-03-11T13:29:22.795Z,99.90
2023-03-11T13:32:05.416Z,99.90
2023-03-11T13:34:51.531Z,99.90
2023-03-11T13:37:32.082Z,99.90
2023-03-11T13:40:17.908Z,99.90
2023-03-11T13:43:13.250Z,99.90
2023-03-11T13:45:51.504Z,99.90
2023-03-11T13:48:31.841Z,99.90
2023-03-11T13:51:20.093Z,99.90
2023-03-11T13:53:57.979Z,99.90
2023-03-11T13:56:39.213Z,99.90
2023-03-11T13:59:28.025Z,99.90
2023-03-11T14:02:03.568Z,99.90
2023-03-11T14:04:44.571Z,99.90
2023-03-11T14:07:29.668Z,99.90
2023-03-11T14:10:25.194Z,99.90
2023-03-11T14:13:17.120Z,99.90
2023-03-11T14:16:00.688Z,99.90
2023-03-11T14:18:36.650Z,99.90
2023-03-11T14:21:13.360Z,99.90
2023-03-11T14:23:53.631Z,99.90
2023-03-11T14:26:29.329Z,99.90
2023-03-11T14:29:04.055Z,99.90
2023-03-11T14:31:44.390Z,99.90
2023-03-11T14:34:45.318Z,99.90
2023-03-11T14:37:38.262Z,99.90
2023-03-11T14:40:29.314Z,99.90
2023-03-11T14:43:06.325Z,99.90
2023-03-11T14:45:51.162Z,99.90
2023-03-11T14:48:33.073Z,99.90
2023-03-11T14:51:08.447Z,99.90
2023-03-11T14:53:50.103Z,99.90
2023-03-11T14:56:33.948Z,99.90
2023-03-11T14:59:12.620Z,99.90
2023-03-11T15:01:51.249Z,99.90
2023-03-11T15:04:34.832Z,99.90
2023-03-11T15:07:18.870Z,99.90
2023-03-11T15:09:53.547Z,99.90
2023-03-11T15:12:42.032Z,99.90
2023-03-11T15:15:27.443Z,99.90
2023-03-11T15:18:07.226Z,99.90
2023-03-11T15:20:39.412Z,99.90
2023-03-11T15:23:19.127Z,99.90
2023-03-11T15:26:07.402Z,99.90
2023-03-11T15:28:42.969Z,99.90
2023-03-11T15:31:45.561Z,99.90
2023-03-11T15:34:43.663Z,99.90
2023-03-11T15:46:26.233Z,99.90
2023-03-11T15:51:58.706Z,99.90
2023-03-11T15:54:35.082Z,99.90
2023-03-11T15:57:13.060Z,99.90
2023-03-11T15:59:50.837Z,99.90
2023-03-11T16:02:29.989Z,99.90
2023-03-11T16:05:05.822Z,99.90
2023-03-11T16:07:49.725Z,99.90
2023-03-11T16:13:39.950Z,99.90
2023-03-11T16:19:30.689Z,99.90
2023-03-11T16:34:00.051Z,99.90
2023-03-11T16:36:28.605Z,99.90
2023-03-11T16:38:57.285Z,99.90
2023-03-11T16:41:26.322Z,99.90
2023-03-11T16:43:55.208Z,99.90
2023-03-11T16:46:23.831Z,99.90
2023-03-11T16:48:53.860Z,99.90
2023-03-11T16:51:24.304Z,99.90
2023-03-11T16:53:53.089Z,99.90
2023-03-11T16:56:22.802Z,99.90
2023-03-11T16:58:51.147Z,99.90
2023-03-11T17:01:21.641Z,99.90
2023-03-11T17:03:51.975Z,99.90
2023-03-11T17:06:21.601Z,99.90
2023-03-11T17:08:52.663Z,99.90
2023-03-11T17:11:23.389Z,99.90
2023-03-11T17:13:52.060Z,99.90
2023-03-11T17:16:21.258Z,99.90
2023-03-11T17:18:49.712Z,93.30
2023-03-11T17:21:19.708Z,99.90
2023-03-11T17:23:48.563Z,99.90
2023-03-11T17:26:18.945Z,99.90
2023-03-11T17:28:47.470Z,99.90
2023-03-11T17:31:17.454Z,99.90
2023-03-11T17:33:46.219Z,99.90
2023-03-11T17:36:17.348Z,99.90
2023-03-11T17:38:46.202Z,99.90
2023-03-11T17:41:18.838Z,99.90
2023-03-11T17:43:49.217Z,99.90
2023-03-11T17:46:20.802Z,99.90
2023-03-11T17:48:50.747Z,99.90
2023-03-11T17:51:23.349Z,99.90
2023-03-11T17:53:51.825Z,99.90
2023-03-11T17:56:23.252Z,97.70
2023-03-11T17:58:52.638Z,99.90
2023-03-11T18:01:23.775Z,99.90
2023-03-11T18:03:53.078Z,99.90
2023-03-11T18:06:22.718Z,99.90
2023-03-11T18:08:52.635Z,99.90
2023-03-11T18:11:25.042Z,99.90
2023-03-11T18:13:54.129Z,99.90
2023-03-11T18:16:26.887Z,99.90
2023-03-11T18:18:56.390Z,99.90
2023-03-11T18:21:26.724Z,99.90
2023-03-11T18:23:57.618Z,99.90
2023-03-11T18:26:30.766Z,99.90
2023-03-11T18:29:00.525Z,99.90
2023-03-11T18:31:31.203Z,99.90
2023-03-11T18:34:02.167Z,99.90
2023-03-11T18:36:32.416Z,99.90
2023-03-11T18:39:01.945Z,99.90
2023-03-11T18:41:35.486Z,99.90
2023-03-11T18:44:04.387Z,99.90
2023-03-11T18:46:34.013Z,99.90
2023-03-11T18:49:03.978Z,99.90
2023-03-11T18:51:33.330Z,99.90
2023-03-11T18:54:02.043Z,99.90
2023-03-11T18:56:32.236Z,99.90
2023-03-11T18:59:01.591Z,99.90
2023-03-11T19:01:30.689Z,99.90
2023-03-11T19:04:01.841Z,99.90
2023-03-11T19:06:31.091Z,99.90
2023-03-11T19:08:59.873Z,99.90
2023-03-11T19:11:28.505Z,99.90
2023-03-11T19:13:59.510Z,99.90
2023-03-11T19:16:28.227Z,99.90
2023-03-11T19:19:01.297Z,99.90
2023-03-11T19:21:30.148Z,99.90
2023-03-11T19:24:00.533Z,99.90
2023-03-11T19:26:43.821Z,99.90
2023-03-11T19:29:18.327Z,99.90
2023-03-11T19:31:47.558Z,99.90
2023-03-11T19:34:16.213Z,99.90
2023-03-11T19:36:48.890Z,99.90
2023-03-11T19:39:18.658Z,99.90
2023-03-11T19:41:47.099Z,99.90
2023-03-11T19:44:17.834Z,99.90
2023-03-11T19:46:46.645Z,99.90
2023-03-11T19:49:14.918Z,99.90
2023-03-11T19:51:50.232Z,99.90
2023-03-11T19:54:19.529Z,99.90
2023-03-11T19:56:48.217Z,99.90
2023-03-11T19:59:18.575Z,99.90
2023-03-11T20:01:47.031Z,99.90
2023-03-11T20:04:18.746Z,99.90
2023-03-11T20:06:48.040Z,99.90
2023-03-11T20:09:17.750Z,99.90
2023-03-11T20:11:48.955Z,99.90
2023-03-11T20:14:19.462Z,99.90
2023-03-11T20:16:48.848Z,99.90
2023-03-11T20:19:17.579Z,99.90
2023-03-11T20:21:46.749Z,99.90
2023-03-11T20:24:15.901Z,99.90
2023-03-11T20:26:44.782Z,99.90
2023-03-11T20:29:14.116Z,99.90
2023-03-11T20:31:45.641Z,99.90
2023-03-11T20:34:14.529Z,99.90
2023-03-11T20:36:43.928Z,99.90
2023-03-11T20:39:12.359Z,99.90
2023-03-11T20:41:41.980Z,99.90
2023-03-11T20:44:14.300Z,99.90
2023-03-11T20:46:45.132Z,99.90
2023-03-11T20:49:16.064Z,99.90
2023-03-11T20:51:48.164Z,99.90
2023-03-11T20:54:17.309Z,99.90
2023-03-11T20:56:45.869Z,99.90
2023-03-11T20:59:14.958Z,99.90
2023-03-11T21:01:45.915Z,99.90
2023-03-11T21:04:16.651Z,99.90
2023-03-11T21:06:46.144Z,99.90
2023-03-11T21:09:16.251Z,99.90
2023-03-11T21:11:44.944Z,99.90
2023-03-11T21:14:17.156Z,99.90
2023-03-11T21:16:47.560Z,99.90
2023-03-11T21:19:16.523Z,99.90
2023-03-11T21:21:45.318Z,99.90
2023-03-11T21:24:13.736Z,99.90
2023-03-11T21:26:42.510Z,99.90
2023-03-11T21:29:11.102Z,99.90
2023-03-11T21:31:41.737Z,99.90
2023-03-11T21:34:13.249Z,99.90
2023-03-11T21:36:41.846Z,99.90
2023-03-11T21:39:10.456Z,99.90
2023-03-11T21:41:40.215Z,99.90
2023-03-11T21:44:08.765Z,99.90
2023-03-11T21:46:37.686Z,99.90
2023-03-11T21:49:06.844Z,99.90
2023-03-11T21:51:39.314Z,99.90
2023-03-11T21:54:08.429Z,99.90
2023-03-11T21:56:38.674Z,99.90
2023-03-11T21:59:08.002Z,99.90
2023-03-11T22:01:36.758Z,99.90
2023-03-11T22:04:06.502Z,99.90
2023-03-11T22:06:36.495Z,99.90
2023-03-11T22:09:06.265Z,99.90
2023-03-11T22:11:35.042Z,99.90
2023-03-11T22:14:03.865Z,99.90
2023-03-11T22:16:32.609Z,99.90
2023-03-11T22:19:01.209Z,99.90
2023-03-11T22:21:29.928Z,99.90
2023-03-11T22:24:01.304Z,99.90
2023-03-11T22:26:29.864Z,99.90
2023-03-11T22:29:02.453Z,99.90
2023-03-11T22:31:33.284Z,99.90
2023-03-11T22:34:01.731Z,99.90
2023-03-11T22:36:32.730Z,99.90
2023-03-11T22:39:05.712Z,99.90
2023-03-11T22:41:34.717Z,99.90
2023-03-11T22:44:03.368Z,99.90
2023-03-11T22:46:32.003Z,99.90
2023-03-11T22:49:01.461Z,99.90
2023-03-11T22:51:30.626Z,99.90
2023-03-11T22:53:59.070Z,99.90
2023-03-11T22:56:29.048Z,99.90
2023-03-11T22:58:57.932Z,99.90
2023-03-11T23:01:29.080Z,99.90
2023-03-11T23:03:59.228Z,99.90
2023-03-11T23:06:30.328Z,99.90
2023-03-11T23:08:58.767Z,99.90
2023-03-11T23:11:29.234Z,99.90
2023-03-11T23:13:58.739Z,99.90
2023-03-11T23:16:28.006Z,99.90
2023-03-11T23:18:57.463Z,99.90
2023-03-11T23:21:28.728Z,99.90
2023-03-11T23:24:01.873Z,99.90
2023-03-11T23:26:32.106Z,99.90
2023-03-11T23:29:02.324Z,99.90
2023-03-11T23:31:31.959Z,99.90
2023-03-11T23:34:03.591Z,99.90
2023-03-11T23:36:32.337Z,99.90
2023-03-11T23:39:02.232Z,99.90
2023-03-11T23:41:32.186Z,99.90
2023-03-11T23:44:01.008Z,99.90
2023-03-11T23:46:29.799Z,99.90
2023-03-11T23:49:00.380Z,99.90
2023-03-11T23:51:28.972Z,99.90
2023-03-11T23:53:57.968Z,99.90
2023-03-11T23:56:26.481Z,99.90
2023-03-11T23:58:56.295Z,99.90
